createdAt,value
2019-01-23T00:01:25.404Z,24.30
2019-01-23T00:03:54.882Z,24.37
2019-01-23T00:06:24.066Z,24.60
2019-01-23T00:08:53.251Z,22.97
2019-01-23T00:11:22.857Z,23.33
2019-01-23T00:14:10.976Z,23.00
2019-01-23T00:16:40.196Z,23.60
2019-01-23T00:19:09.388Z,25.13
2019-01-23T00:21:38.698Z,24.20
2019-01-23T00:24:07.873Z,23.83
2019-01-23T00:26:37.083Z,24.87
2019-01-23T00:29:25.455Z,25.00
2019-01-23T00:31:54.944Z,23.77
2019-01-23T00:34:24.114Z,24.70
2019-01-23T00:36:53.320Z,24.87
2019-01-23T00:39:22.495Z,23.77
2019-01-23T00:41:51.750Z,24.57
2019-01-23T00:44:20.943Z,24.73
2019-01-23T00:46:50.426Z,23.60
2019-01-23T00:49:19.645Z,24.80
2019-01-23T00:51:48.850Z,24.23
2019-01-23T00:54:18.026Z,25.23
2019-01-23T00:56:47.215Z,24.77
2019-01-23T00:59:16.642Z,26.03
2019-01-23T01:01:45.842Z,25.77
2019-01-23T01:04:15.018Z,25.87
2019-01-23T01:06:44.515Z,26.50
2019-01-23T01:09:13.678Z,24.93
2019-01-23T01:11:42.882Z,25.03
2019-01-23T01:14:12.084Z,25.50
2019-01-23T01:16:41.560Z,25.63
2019-01-23T01:19:10.746Z,24.20
2019-01-23T01:21:39.936Z,24.47
2019-01-23T01:24:09.377Z,25.73
2019-01-23T01:26:38.582Z,24.97
2019-01-23T01:29:07.756Z,24.93
2019-01-23T01:31:36.955Z,26.00
2019-01-23T01:34:06.119Z,23.40
2019-01-23T01:36:35.318Z,25.83
2019-01-23T01:39:07.027Z,25.93
2019-01-23T01:41:36.265Z,25.40
2019-01-23T01:44:05.546Z,26.07
2019-01-23T01:46:34.743Z,25.57
2019-01-23T01:49:03.933Z,25.63
2019-01-23T01:51:33.162Z,24.10
2019-01-23T01:54:02.391Z,24.87
2019-01-23T01:56:31.622Z,26.70
2019-01-23T01:59:02.946Z,25.20
2019-01-23T02:01:31.733Z,25.43
2019-01-23T02:04:01.396Z,25.13
2019-01-23T02:06:30.598Z,25.50
2019-01-23T02:08:59.782Z,25.13
2019-01-23T02:11:28.964Z,24.10
2019-01-23T02:13:58.143Z,25.73
2019-01-23T02:16:27.350Z,25.57
2019-01-23T02:18:56.536Z,27.43
2019-01-23T02:21:25.857Z,25.43
2019-01-23T02:23:55.040Z,26.37
2019-01-23T02:26:24.253Z,26.87
2019-01-23T02:28:53.447Z,26.57
2019-01-23T02:31:22.711Z,25.90
2019-01-23T02:33:51.879Z,25.57
2019-01-23T02:36:21.076Z,25.80
2019-01-23T02:38:50.263Z,25.30
2019-01-23T02:41:19.739Z,25.70
2019-01-23T02:43:48.910Z,25.43
2019-01-23T02:46:18.135Z,26.03
2019-01-23T02:48:47.275Z,25.77
2019-01-23T02:51:16.472Z,25.67
2019-01-23T02:53:52.549Z,25.43
2019-01-23T02:56:21.723Z,25.90
2019-01-23T02:58:50.899Z,25.37
2019-01-23T03:01:20.107Z,25.17
2019-01-23T03:03:49.554Z,25.87
2019-01-23T03:06:18.769Z,26.17
2019-01-23T03:08:48.196Z,25.93
2019-01-23T03:11:17.405Z,25.70
2019-01-23T03:13:46.583Z,25.37
2019-01-23T03:16:15.785Z,24.83
2019-01-23T03:18:45.269Z,27.67
2019-01-23T03:21:14.434Z,25.97
2019-01-23T03:23:43.730Z,32.60
2019-01-23T03:26:12.902Z,27.27
2019-01-23T03:28:42.084Z,25.50
2019-01-23T03:31:11.290Z,26.33
2019-01-23T03:33:40.477Z,25.47
2019-01-23T03:36:09.686Z,25.47
2019-01-23T03:38:39.250Z,26.53
2019-01-23T03:41:08.438Z,26.70
2019-01-23T03:43:37.637Z,25.17
2019-01-23T03:46:06.806Z,25.80
2019-01-23T03:48:36.024Z,25.40
2019-01-23T03:51:05.189Z,26.00
2019-01-23T03:53:34.411Z,25.67
2019-01-23T03:56:03.851Z,24.97
2019-01-23T03:58:33.158Z,25.20
2019-01-23T04:01:02.353Z,25.23
2019-01-23T04:03:31.554Z,25.50
2019-01-23T04:06:00.709Z,26.07
2019-01-23T04:08:29.915Z,26.20
2019-01-23T04:10:59.100Z,26.07
2019-01-23T04:13:28.295Z,25.57
2019-01-23T04:15:57.551Z,25.53
2019-01-23T04:18:26.762Z,24.93
2019-01-23T04:20:55.937Z,26.17
2019-01-23T04:23:25.415Z,25.70
2019-01-23T04:25:54.582Z,25.00
2019-01-23T04:28:24.184Z,25.00
2019-01-23T04:30:53.691Z,23.47
2019-01-23T04:33:22.879Z,24.87
2019-01-23T04:35:52.074Z,24.47
2019-01-23T04:38:21.615Z,25.27
2019-01-23T04:40:50.793Z,23.80
2019-01-23T04:43:20.260Z,23.77
2019-01-23T04:45:49.450Z,23.53
2019-01-23T04:48:18.667Z,25.50
2019-01-23T04:51:07.035Z,26.13
2019-01-23T04:53:40.194Z,23.80
2019-01-23T04:56:09.641Z,23.70
2019-01-23T04:58:38.843Z,24.53
2019-01-23T05:01:08.011Z,24.03
2019-01-23T05:03:37.236Z,24.00
2019-01-23T05:06:06.500Z,24.90
2019-01-23T05:08:35.710Z,23.87
2019-01-23T05:11:04.895Z,23.77
2019-01-23T05:13:34.132Z,22.80
2019-01-23T05:16:03.584Z,22.70
2019-01-23T05:18:32.787Z,23.33
2019-01-23T05:21:01.974Z,24.10
2019-01-23T05:23:31.167Z,25.23
2019-01-23T05:26:00.600Z,22.73
2019-01-23T05:28:29.828Z,23.30
2019-01-23T05:30:58.985Z,23.50
2019-01-23T05:33:28.172Z,24.33
2019-01-23T05:35:57.368Z,24.33
2019-01-23T05:38:26.879Z,22.90
2019-01-23T05:40:56.083Z,24.73
2019-01-23T05:43:25.279Z,23.90
2019-01-23T05:45:54.448Z,23.70
2019-01-23T05:48:23.656Z,24.47
2019-01-23T05:50:52.845Z,22.87
2019-01-23T05:53:22.099Z,23.17
2019-01-23T05:55:51.276Z,23.90
2019-01-23T05:58:20.496Z,23.90
2019-01-23T06:00:49.970Z,23.97
2019-01-23T06:03:19.192Z,22.33
2019-01-23T06:05:48.383Z,23.57
2019-01-23T06:08:17.604Z,22.17
2019-01-23T06:10:46.778Z,23.07
2019-01-23T06:13:16.259Z,23.53
2019-01-23T06:15:45.445Z,23.17
2019-01-23T06:18:14.683Z,22.60
2019-01-23T06:20:43.849Z,24.53
2019-01-23T06:23:13.320Z,23.60
2019-01-23T06:25:42.510Z,24.30
2019-01-23T06:28:12.053Z,23.60
2019-01-23T06:30:41.222Z,25.17
2019-01-23T06:33:10.466Z,23.73
2019-01-23T06:35:39.720Z,24.93
2019-01-23T06:38:08.899Z,23.30
2019-01-23T06:40:38.094Z,24.67
2019-01-23T06:43:07.274Z,24.60
2019-01-23T06:45:36.484Z,24.53
2019-01-23T06:48:45.069Z,25.53
2019-01-23T06:51:14.249Z,24.10
2019-01-23T06:53:43.467Z,24.90
2019-01-23T06:56:12.641Z,25.40
2019-01-23T06:59:01.278Z,26.30
2019-01-23T07:01:30.447Z,26.20
2019-01-23T07:03:59.650Z,26.73
2019-01-23T07:06:28.816Z,26.60
2019-01-23T07:08:58.013Z,25.73
2019-01-23T07:11:27.194Z,26.17
2019-01-23T07:13:56.410Z,26.83
2019-01-23T07:16:25.661Z,26.80
2019-01-23T07:18:54.863Z,26.40
2019-01-23T07:21:24.036Z,26.93
2019-01-23T07:23:53.239Z,27.33
2019-01-23T07:26:22.411Z,26.63
2019-01-23T07:28:51.595Z,26.07
2019-01-23T07:31:20.763Z,27.03
2019-01-23T07:33:49.957Z,26.27
2019-01-23T07:36:19.123Z,26.27
2019-01-23T07:38:48.305Z,27.20
2019-01-23T07:41:17.472Z,27.07
2019-01-23T07:46:13.156Z,27.37
2019-01-23T07:48:42.336Z,26.97
2019-01-23T07:51:11.571Z,26.07
2019-01-23T07:53:40.767Z,25.03
2019-01-23T07:56:10.347Z,26.13
2019-01-23T07:58:39.526Z,26.73
2019-01-23T08:01:08.820Z,26.33
2019-01-23T08:03:38.016Z,25.03
2019-01-23T08:06:07.225Z,26.50
2019-01-23T08:08:36.407Z,26.50
2019-01-23T08:11:05.645Z,24.60
2019-01-23T08:13:34.807Z,25.67
2019-01-23T08:16:04.406Z,25.23
2019-01-23T08:18:33.591Z,24.30
2019-01-23T08:21:03.370Z,25.13
2019-01-23T08:23:32.531Z,24.67
2019-01-23T08:26:01.747Z,24.60
2019-01-23T08:28:30.942Z,25.00
2019-01-23T08:31:00.135Z,24.23
2019-01-23T08:33:29.320Z,23.40
2019-01-23T08:35:58.905Z,23.53
2019-01-23T08:38:28.145Z,24.17
2019-01-23T08:40:57.709Z,22.27
2019-01-23T08:43:26.900Z,24.77
2019-01-23T08:45:56.106Z,22.43
2019-01-23T08:48:25.308Z,22.90
2019-01-23T08:50:54.779Z,22.37
2019-01-23T08:53:24.237Z,22.20
2019-01-23T08:55:53.976Z,22.13
2019-01-23T08:58:24.391Z,22.50
2019-01-23T09:00:53.877Z,21.07
2019-01-23T09:03:23.064Z,22.60
2019-01-23T09:05:52.291Z,22.50
2019-01-23T09:08:21.473Z,23.03
2019-01-23T09:10:50.997Z,22.40
2019-01-23T09:13:20.469Z,21.83
2019-01-23T09:15:50.189Z,21.37
2019-01-23T09:18:19.419Z,23.00
2019-01-23T09:20:48.967Z,21.23
2019-01-23T09:23:18.187Z,19.40
2019-01-23T09:25:50.153Z,21.77
2019-01-23T09:28:18.424Z,23.07
2019-01-23T09:31:03.639Z,21.67
2019-01-23T09:34:11.213Z,20.53
2019-01-23T09:37:11.009Z,21.57
2019-01-23T09:39:57.736Z,22.07
2019-01-23T09:43:05.291Z,21.57
2019-01-23T09:46:13.712Z,21.13
2019-01-23T09:49:20.958Z,22.03
2019-01-23T09:52:28.634Z,21.13
2019-01-23T09:54:57.818Z,22.27
2019-01-23T09:57:27.365Z,21.80
2019-01-23T09:59:56.598Z,21.10
2019-01-23T10:02:26.522Z,21.90
2019-01-23T10:04:55.746Z,20.47
2019-01-23T10:07:24.993Z,22.40
2019-01-23T10:09:54.223Z,19.53
2019-01-23T10:12:23.447Z,21.17
2019-01-23T10:14:52.686Z,21.63
2019-01-23T10:17:22.224Z,20.37
2019-01-23T10:19:52.690Z,20.53
2019-01-23T10:22:22.333Z,20.27
2019-01-23T10:24:51.793Z,21.17
2019-01-23T10:27:21.029Z,19.37
2019-01-23T10:29:50.247Z,20.97
2019-01-23T10:32:19.478Z,19.83
2019-01-23T10:34:48.670Z,20.63
2019-01-23T10:37:19.675Z,20.43
2019-01-23T10:42:37.005Z,20.40
2019-01-23T10:45:46.046Z,20.97
2019-01-23T10:48:15.256Z,20.77
2019-01-23T10:50:44.491Z,19.80
2019-01-23T10:53:13.730Z,19.53
2019-01-23T10:55:43.071Z,23.10
2019-01-23T10:58:12.287Z,20.47
2019-01-23T11:00:41.698Z,19.90
2019-01-23T11:03:10.944Z,18.83
2019-01-23T11:05:40.186Z,19.97
2019-01-23T11:08:09.546Z,18.57
2019-01-23T11:10:39.026Z,19.90
2019-01-23T11:13:08.533Z,20.83
2019-01-23T11:15:37.741Z,21.10
2019-01-23T11:18:46.692Z,19.03
2019-01-23T11:21:15.928Z,20.53
2019-01-23T11:23:45.124Z,18.97
2019-01-23T11:26:14.643Z,19.70
2019-01-23T11:28:43.864Z,19.03
2019-01-23T11:31:20.186Z,20.27
2019-01-23T11:33:44.348Z,20.47
2019-01-23T11:36:13.589Z,19.07
2019-01-23T11:38:42.823Z,19.90
2019-01-23T11:41:12.174Z,20.37
2019-01-23T11:43:41.380Z,20.70
2019-01-23T11:46:10.593Z,20.87
2019-01-23T11:48:39.829Z,21.00
2019-01-23T11:51:09.223Z,20.33
2019-01-23T11:53:38.449Z,20.67
2019-01-23T11:56:08.859Z,20.30
2019-01-23T11:58:38.598Z,20.00
2019-01-23T12:04:17.253Z,20.23
2019-01-23T12:06:46.557Z,21.30
2019-01-23T12:09:15.797Z,20.67
2019-01-23T12:11:45.020Z,20.80
2019-01-23T12:14:14.798Z,19.63
2019-01-23T12:16:44.391Z,20.47
2019-01-23T12:19:13.583Z,19.97
2019-01-23T12:21:42.772Z,20.50
2019-01-23T12:24:12.048Z,21.03
2019-01-23T12:26:41.229Z,19.10
2019-01-23T12:29:10.449Z,20.03
2019-01-23T12:31:39.627Z,19.20
2019-01-23T12:34:08.834Z,19.97
2019-01-23T12:36:38.020Z,19.57
2019-01-23T12:39:48.020Z,21.03
2019-01-23T12:42:17.214Z,19.40
2019-01-23T12:44:46.691Z,19.77
2019-01-23T12:47:16.120Z,20.30
2019-01-23T12:49:45.320Z,21.20
2019-01-23T12:52:14.515Z,20.67
2019-01-23T12:54:43.986Z,21.00
2019-01-23T12:57:13.439Z,21.20
2019-01-23T12:59:42.633Z,20.73
2019-01-23T13:05:21.051Z,21.33
2019-01-23T13:07:50.369Z,22.10
2019-01-23T13:10:20.564Z,21.00
2019-01-23T13:12:49.754Z,21.70
2019-01-23T13:15:21.319Z,21.17
2019-01-23T13:17:50.541Z,20.50
2019-01-23T13:20:20.758Z,21.57
2019-01-23T13:22:49.956Z,21.80
2019-01-23T13:25:21.378Z,21.20
2019-01-23T13:27:50.601Z,22.23
2019-01-23T13:30:21.546Z,20.17
2019-01-23T13:32:50.857Z,22.47
2019-01-23T13:35:39.808Z,19.90
2019-01-23T13:38:29.848Z,19.33
2019-01-23T13:40:59.306Z,20.03
2019-01-23T13:43:28.528Z,22.67
2019-01-23T13:45:57.713Z,21.43
2019-01-23T13:48:27.158Z,21.33
2019-01-23T13:50:56.381Z,21.57
2019-01-23T13:53:25.552Z,22.43
2019-01-23T13:55:54.829Z,21.23
2019-01-23T13:58:24.254Z,21.77
2019-01-23T14:00:53.763Z,22.97
2019-01-23T14:03:22.955Z,21.70
2019-01-23T14:05:52.452Z,22.33
2019-01-23T14:08:21.636Z,20.47
2019-01-23T14:10:50.858Z,22.53
2019-01-23T14:13:20.040Z,21.77
2019-01-23T14:15:49.252Z,21.70
2019-01-23T14:18:18.469Z,21.93
2019-01-23T14:20:47.952Z,22.33
2019-01-23T14:23:17.133Z,21.13
2019-01-23T14:25:46.646Z,22.00
2019-01-23T14:28:16.228Z,21.30
2019-01-23T14:30:46.323Z,22.40
2019-01-23T14:33:15.581Z,20.90
2019-01-23T14:35:45.853Z,21.70
2019-01-23T14:38:15.393Z,21.97
2019-01-23T14:40:44.929Z,21.13
2019-01-23T14:43:14.126Z,19.70
2019-01-23T14:45:43.353Z,21.67
2019-01-23T14:48:12.522Z,20.53
2019-01-23T14:50:41.738Z,21.37
2019-01-23T14:53:10.945Z,20.90
2019-01-23T14:55:40.162Z,21.97
2019-01-23T14:58:09.639Z,21.93
2019-01-23T15:00:38.865Z,22.43
2019-01-23T15:03:08.336Z,21.03
2019-01-23T15:05:37.539Z,20.73
2019-01-23T15:08:07.000Z,23.43
2019-01-23T15:10:36.502Z,23.20
2019-01-23T15:13:45.240Z,21.73
2019-01-23T15:16:14.803Z,20.33
2019-01-23T15:18:43.995Z,22.63
2019-01-23T15:21:13.232Z,20.87
2019-01-23T15:23:42.800Z,21.73
2019-01-23T15:26:12.415Z,22.30
2019-01-23T15:28:41.910Z,19.83
2019-01-23T15:31:11.412Z,19.87
2019-01-23T15:33:40.844Z,19.60
2019-01-23T15:36:10.063Z,19.57
2019-01-23T15:38:39.240Z,18.87
2019-01-23T15:41:08.444Z,20.03
2019-01-23T15:43:37.632Z,22.37
2019-01-23T15:46:07.243Z,21.57
2019-01-23T15:48:36.492Z,20.03
2019-01-23T15:51:05.718Z,20.57
2019-01-23T15:53:35.229Z,19.10
2019-01-23T15:56:04.815Z,20.10
2019-01-23T15:58:34.015Z,21.10
2019-01-23T16:01:03.222Z,21.37
2019-01-23T16:03:32.703Z,20.30
2019-01-23T16:06:02.168Z,19.60
2019-01-23T16:08:31.424Z,18.67
2019-01-23T16:11:00.619Z,21.30
2019-01-23T16:13:29.848Z,19.93
2019-01-23T16:15:59.338Z,20.50
2019-01-23T16:18:28.544Z,20.83
2019-01-23T16:20:58.002Z,20.00
2019-01-23T16:23:27.653Z,20.47
2019-01-23T16:25:58.703Z,21.77
2019-01-23T16:28:27.908Z,20.80
2019-01-23T16:30:57.090Z,21.70
2019-01-23T16:33:26.553Z,20.67
2019-01-23T16:35:55.756Z,21.83
2019-01-23T16:38:25.084Z,21.43
2019-01-23T16:40:54.562Z,21.90
2019-01-23T16:43:23.768Z,20.40
2019-01-23T16:45:52.977Z,19.17
2019-01-23T16:48:22.181Z,20.30
2019-01-23T16:50:51.398Z,20.93
2019-01-23T16:53:20.672Z,22.60
2019-01-23T16:55:49.847Z,21.17
2019-01-23T16:58:19.059Z,21.30
2019-01-23T17:00:48.239Z,20.87
2019-01-23T17:03:17.509Z,20.77
2019-01-23T17:05:46.712Z,21.33
2019-01-23T17:08:16.011Z,22.40
2019-01-23T17:10:45.468Z,20.33
2019-01-23T17:13:14.683Z,20.43
2019-01-23T17:15:43.873Z,19.47
2019-01-23T17:18:13.111Z,20.17
2019-01-23T17:20:47.936Z,20.20
2019-01-23T17:23:17.135Z,20.63
2019-01-23T17:25:46.341Z,20.27
2019-01-23T17:28:55.229Z,19.90
2019-01-23T17:31:24.435Z,19.63
2019-01-23T17:33:53.633Z,20.03
2019-01-23T17:36:22.815Z,20.40
2019-01-23T17:38:52.012Z,20.07
2019-01-23T17:41:21.202Z,20.50
2019-01-23T17:43:50.584Z,20.50
2019-01-23T17:49:27.357Z,23.00
2019-01-23T17:51:56.803Z,22.37
2019-01-23T17:54:26.004Z,23.80
2019-01-23T17:56:55.468Z,22.27
2019-01-23T17:59:24.692Z,21.43
2019-01-23T18:01:54.181Z,22.23
2019-01-23T18:04:23.398Z,20.67
2019-01-23T18:06:52.878Z,20.30
2019-01-23T18:09:22.370Z,21.53
2019-01-23T18:11:51.966Z,20.43
2019-01-23T18:14:21.196Z,21.23
2019-01-23T18:16:50.408Z,20.83
2019-01-23T18:19:19.621Z,20.53
2019-01-23T18:21:48.920Z,20.27
2019-01-23T18:24:18.119Z,20.10
2019-01-23T18:26:47.574Z,20.23
2019-01-23T18:29:16.797Z,20.73
2019-01-23T18:31:58.661Z,20.47
2019-01-23T18:35:05.937Z,20.57
2019-01-23T18:38:13.218Z,20.50
2019-01-23T18:41:04.869Z,20.63
2019-01-23T18:44:12.134Z,20.30
2019-01-23T18:47:07.878Z,22.23
2019-01-23T18:50:15.142Z,20.30
2019-01-23T18:52:44.327Z,21.73
2019-01-23T18:55:33.456Z,20.97
2019-01-23T18:58:02.979Z,19.23
2019-01-23T19:00:32.178Z,19.93
2019-01-23T19:03:06.933Z,19.77
2019-01-23T19:05:32.564Z,20.57
2019-01-23T19:08:02.042Z,20.87
2019-01-23T19:10:31.490Z,20.57
2019-01-23T19:13:01.019Z,21.60
2019-01-23T19:15:30.229Z,20.63
2019-01-23T19:18:04.993Z,19.50
2019-01-23T19:20:34.508Z,20.47
2019-01-23T19:23:03.714Z,21.40
2019-01-23T19:25:33.235Z,20.87
2019-01-23T19:28:02.789Z,22.13
2019-01-23T19:30:32.002Z,20.60
2019-01-23T19:33:01.191Z,20.93
2019-01-23T19:35:31.116Z,21.87
2019-01-23T19:38:00.354Z,20.87
2019-01-23T19:40:29.672Z,21.20
2019-01-23T19:42:59.124Z,20.00
2019-01-23T19:45:28.371Z,20.90
2019-01-23T19:47:58.392Z,21.97
2019-01-23T19:50:27.889Z,20.57
2019-01-23T19:52:57.397Z,21.17
2019-01-23T19:55:45.975Z,21.93
2019-01-23T19:58:15.234Z,19.70
2019-01-23T20:00:44.751Z,22.43
2019-01-23T20:03:20.272Z,21.07
2019-01-23T20:05:45.504Z,20.80
2019-01-23T20:08:14.720Z,22.37
2019-01-23T20:10:44.373Z,20.10
2019-01-23T20:13:34.289Z,20.43
2019-01-23T20:16:03.641Z,21.57
2019-01-23T20:18:32.882Z,22.07
2019-01-23T20:21:02.507Z,22.93
2019-01-23T20:23:31.765Z,21.67
2019-01-23T20:26:01.558Z,21.70
2019-01-23T20:28:31.097Z,21.70
2019-01-23T20:31:00.387Z,21.60
2019-01-23T20:33:31.306Z,22.27
2019-01-23T20:36:01.619Z,22.37
2019-01-23T20:38:31.166Z,21.17
2019-01-23T20:41:00.423Z,21.03
2019-01-23T20:43:30.777Z,20.50
2019-01-23T20:46:00.374Z,21.33
2019-01-23T20:48:29.562Z,19.77
2019-01-23T20:50:59.134Z,21.00
2019-01-23T20:53:28.587Z,21.47
2019-01-23T20:55:57.936Z,21.07
2019-01-23T20:58:27.145Z,22.17
2019-01-23T21:00:56.707Z,23.53
2019-01-23T21:03:25.901Z,21.07
2019-01-23T21:05:55.373Z,21.73
2019-01-23T21:08:24.928Z,22.07
2019-01-23T21:10:54.408Z,22.63
2019-01-23T21:13:24.557Z,24.33
2019-01-23T21:15:53.760Z,23.70
2019-01-23T21:18:23.238Z,22.70
2019-01-23T21:20:52.702Z,23.13
2019-01-23T21:23:22.186Z,22.70
2019-01-23T21:25:51.410Z,26.60
2019-01-23T21:28:20.586Z,27.70
2019-01-23T21:30:50.394Z,26.13
2019-01-23T21:33:19.578Z,22.60
2019-01-23T21:35:49.078Z,23.33
2019-01-23T21:38:18.261Z,23.43
2019-01-23T21:40:47.472Z,22.33
2019-01-23T21:43:16.761Z,22.73
2019-01-23T21:45:45.988Z,22.00
2019-01-23T21:48:15.168Z,22.90
2019-01-23T21:50:44.425Z,22.60
2019-01-23T21:53:13.615Z,23.23
2019-01-23T21:58:17.835Z,22.00
2019-01-23T22:00:49.663Z,22.00
2019-01-23T22:03:18.842Z,22.97
2019-01-23T22:05:48.083Z,23.13
2019-01-23T22:08:17.834Z,20.27
2019-01-23T22:10:47.083Z,21.83
2019-01-23T22:13:16.280Z,22.23
2019-01-23T22:15:45.765Z,21.70
2019-01-23T22:18:14.979Z,21.57
2019-01-23T22:20:44.572Z,21.47
2019-01-23T22:23:14.399Z,22.83
2019-01-23T22:25:43.909Z,20.50
2019-01-23T22:28:32.163Z,21.40
2019-01-23T22:31:01.419Z,19.73
2019-01-23T22:33:30.871Z,21.50
2019-01-23T22:36:00.107Z,21.60
2019-01-23T22:38:29.315Z,21.20
2019-01-23T22:40:58.532Z,22.00
2019-01-23T22:43:27.722Z,20.83
2019-01-23T22:45:57.252Z,21.27
2019-01-23T22:48:26.431Z,21.07
2019-01-23T22:50:55.669Z,20.90
2019-01-23T22:53:24.842Z,20.17
2019-01-23T22:55:54.092Z,20.83
2019-01-23T22:58:23.675Z,21.03
2019-01-23T23:04:08.138Z,20.47
2019-01-23T23:06:37.343Z,21.13
2019-01-23T23:11:59.834Z,23.10
2019-01-23T23:14:29.048Z,21.03
2019-01-23T23:16:58.298Z,21.30
2019-01-23T23:19:27.475Z,19.77
2019-01-23T23:22:15.772Z,20.03
2019-01-23T23:24:45.244Z,20.93
2019-01-23T23:27:14.727Z,21.77
2019-01-23T23:29:44.164Z,21.73
2019-01-23T23:32:13.640Z,22.63
2019-01-23T23:34:43.022Z,21.17
2019-01-23T23:37:12.226Z,21.77
2019-01-23T23:39:41.454Z,21.23
2019-01-23T23:42:10.752Z,22.30
2019-01-23T23:44:40.055Z,23.03
2019-01-23T23:47:09.350Z,24.27
2019-01-23T23:49:38.587Z,23.83
2019-01-23T23:52:08.281Z,25.27
2019-01-23T23:54:37.524Z,26.30
2019-01-23T23:57:07.127Z,24.67
2019-01-23T23:59:38.943Z,27.90
